New Philadelphia, Illinois
Current Conditions -  °F | °C
As of 11:55 PM on Wednesday 22 Oct 2014 (Local Time) from KMQB Reporting Station
Clear Clear  
Wind Chill: 37°   Ceiling: Unl
Heat Index: 42°   Visibility: 10mi
Dew Point: 37°   Wind: 8mph
Humidity: 82%   Direction: 140°SE
Pressure: 30.24"   Gusts: NA
Location:  40.4998°N, 90.3918°W
Report Text: KMQB 230455Z AUTO 14007KT 10SM CLR 06/03 A3024 RMK AO2 T00560027
Loading
Personal Weather Stations






























Interactive Weather Map
Tropical Storm Tracking
New forecast layout! Learn more

10-Day Weather Forecast

Advertisements
Track Severe Weather on mobile